sensor_id;sensor_type;location;lat;lon;timestamp;pressure;altitude;pressure_sealevel;temperature;humidity
13407;BME280;6774;48.208;10.766;2023-07-28T00:00:06;94984.16;;;16.14;85.41
13407;BME280;6774;48.208;10.766;2023-07-28T00:02:40;94982.22;;;16.10;85.48
13407;BME280;6774;48.208;10.766;2023-07-28T00:05:09;94974.69;;;16.07;85.52
13407;BME280;6774;48.208;10.766;2023-07-28T00:07:36;94971.34;;;16.00;85.95
13407;BME280;6774;48.208;10.766;2023-07-28T00:10:05;94975.50;;;15.96;85.93
13407;BME280;6774;48.208;10.766;2023-07-28T00:12:33;94975.63;;;15.89;86.20
13407;BME280;6774;48.208;10.766;2023-07-28T00:15:01;94978.53;;;15.87;86.36
13407;BME280;6774;48.208;10.766;2023-07-28T00:17:29;94974.50;;;15.85;86.34
13407;BME280;6774;48.208;10.766;2023-07-28T00:19:57;94972.88;;;15.84;86.30
13407;BME280;6774;48.208;10.766;2023-07-28T00:22:26;94971.25;;;15.83;86.44
13407;BME280;6774;48.208;10.766;2023-07-28T00:24:53;94968.00;;;15.81;86.39
13407;BME280;6774;48.208;10.766;2023-07-28T00:27:21;94971.13;;;15.78;86.64
13407;BME280;6774;48.208;10.766;2023-07-28T00:29:49;94966.06;;;15.76;86.50
13407;BME280;6774;48.208;10.766;2023-07-28T00:32:17;94965.25;;;15.76;86.31
13407;BME280;6774;48.208;10.766;2023-07-28T00:34:45;94975.41;;;15.79;85.72
13407;BME280;6774;48.208;10.766;2023-07-28T00:37:12;94976.22;;;15.79;85.05
13407;BME280;6774;48.208;10.766;2023-07-28T00:39:42;94978.66;;;15.81;84.88
13407;BME280;6774;48.208;10.766;2023-07-28T00:42:09;94980.63;;;15.85;84.40
13407;BME280;6774;48.208;10.766;2023-07-28T00:44:37;94978.06;;;15.90;84.19
13407;BME280;6774;48.208;10.766;2023-07-28T00:47:05;94975.06;;;15.87;83.75
13407;BME280;6774;48.208;10.766;2023-07-28T00:49:33;94974.59;;;15.90;83.22
13407;BME280;6774;48.208;10.766;2023-07-28T00:52:01;94970.91;;;15.91;82.93
13407;BME280;6774;48.208;10.766;2023-07-28T00:54:30;94970.88;;;16.03;82.29
13407;BME280;6774;48.208;10.766;2023-07-28T00:56:59;94965.44;;;16.09;81.75
13407;BME280;6774;48.208;10.766;2023-07-28T00:59:27;94968.50;;;16.18;81.32
13407;BME280;6774;48.208;10.766;2023-07-28T01:01:55;94967.94;;;16.28;80.81
13407;BME280;6774;48.208;10.766;2023-07-28T01:04:23;94960.03;;;16.33;80.55
13407;BME280;6774;48.208;10.766;2023-07-28T01:06:54;94956.88;;;16.36;80.26
13407;BME280;6774;48.208;10.766;2023-07-28T01:09:29;94957.47;;;16.38;80.50
13407;BME280;6774;48.208;10.766;2023-07-28T01:12:07;94966.03;;;16.40;80.18
13407;BME280;6774;48.208;10.766;2023-07-28T01:14:36;94962.81;;;16.38;80.19
13407;BME280;6774;48.208;10.766;2023-07-28T01:17:04;94961.75;;;16.39;80.11
13407;BME280;6774;48.208;10.766;2023-07-28T01:19:32;94967.53;;;16.36;80.37
13407;BME280;6774;48.208;10.766;2023-07-28T01:22:27;94970.19;;;16.36;80.62
13407;BME280;6774;48.208;10.766;2023-07-28T01:25:05;94963.94;;;16.42;79.91
13407;BME280;6774;48.208;10.766;2023-07-28T01:27:36;94962.31;;;16.41;80.13
13407;BME280;6774;48.208;10.766;2023-07-28T01:30:09;94960.59;;;16.46;79.91
13407;BME280;6774;48.208;10.766;2023-07-28T01:32:37;94957.69;;;16.48;79.92
13407;BME280;6774;48.208;10.766;2023-07-28T01:35:06;94963.00;;;16.48;80.05
13407;BME280;6774;48.208;10.766;2023-07-28T01:37:34;94959.28;;;16.49;79.82
13407;BME280;6774;48.208;10.766;2023-07-28T01:40:02;94961.94;;;16.49;79.80
13407;BME280;6774;48.208;10.766;2023-07-28T01:42:30;94963.81;;;16.48;80.03
13407;BME280;6774;48.208;10.766;2023-07-28T01:44:59;94966.22;;;16.50;79.76
13407;BME280;6774;48.208;10.766;2023-07-28T01:47:27;94960.59;;;16.46;79.78
13407;BME280;6774;48.208;10.766;2023-07-28T01:49:55;94956.06;;;16.47;79.52
13407;BME280;6774;48.208;10.766;2023-07-28T01:52:23;94964.38;;;16.50;79.41
13407;BME280;6774;48.208;10.766;2023-07-28T01:54:51;94966.78;;;16.52;79.45
13407;BME280;6774;48.208;10.766;2023-07-28T01:57:19;94958.81;;;16.52;79.28
13407;BME280;6774;48.208;10.766;2023-07-28T01:59:46;94957.75;;;16.53;79.53
13407;BME280;6774;48.208;10.766;2023-07-28T02:02:15;94956.72;;;16.54;79.42
13407;BME280;6774;48.208;10.766;2023-07-28T02:04:43;94962.28;;;16.53;79.60
13407;BME280;6774;48.208;10.766;2023-07-28T02:07:11;94959.97;;;16.56;79.53
13407;BME280;6774;48.208;10.766;2023-07-28T02:09:39;94961.00;;;16.55;79.69
13407;BME280;6774;48.208;10.766;2023-07-28T02:12:07;94959.22;;;16.61;79.39
13407;BME280;6774;48.208;10.766;2023-07-28T02:14:35;94949.63;;;16.60;79.39
13407;BME280;6774;48.208;10.766;2023-07-28T02:17:03;94955.28;;;16.63;79.28
13407;BME280;6774;48.208;10.766;2023-07-28T02:19:32;94949.94;;;16.63;79.09
13407;BME280;6774;48.208;10.766;2023-07-28T02:21:59;94952.63;;;16.63;79.29
13407;BME280;6774;48.208;10.766;2023-07-28T02:24:28;94955.28;;;16.63;79.30
13407;BME280;6774;48.208;10.766;2023-07-28T02:26:56;94959.00;;;16.62;79.65
13407;BME280;6774;48.208;10.766;2023-07-28T02:29:25;94946.25;;;16.64;79.67
13407;BME280;6774;48.208;10.766;2023-07-28T02:31:53;94951.09;;;16.67;79.77
13407;BME280;6774;48.208;10.766;2023-07-28T02:34:20;94960.97;;;16.67;79.97
13407;BME280;6774;48.208;10.766;2023-07-28T02:36:50;94953.78;;;16.67;79.84
13407;BME280;6774;48.208;10.766;2023-07-28T02:39:17;94951.81;;;16.74;79.69
13407;BME280;6774;48.208;10.766;2023-07-28T02:41:46;94948.53;;;16.72;79.90
13407;BME280;6774;48.208;10.766;2023-07-28T02:44:13;94953.06;;;16.72;79.94
13407;BME280;6774;48.208;10.766;2023-07-28T02:46:41;94956.81;;;16.59;81.03
13407;BME280;6774;48.208;10.766;2023-07-28T02:49:09;94955.75;;;16.60;81.06
13407;BME280;6774;48.208;10.766;2023-07-28T02:51:37;94949.06;;;16.58;81.24
13407;BME280;6774;48.208;10.766;2023-07-28T02:54:07;94949.00;;;16.41;81.31
13407;BME280;6774;48.208;10.766;2023-07-28T02:56:35;94954.63;;;16.16;82.18
13407;BME280;6774;48.208;10.766;2023-07-28T02:59:09;94959.44;;;15.79;82.32
13407;BME280;6774;48.208;10.766;2023-07-28T03:01:36;94957.34;;;15.34;83.49
13407;BME280;6774;48.208;10.766;2023-07-28T03:04:05;94963.78;;;14.91;85.32
13407;BME280;6774;48.208;10.766;2023-07-28T03:06:52;94970.25;;;14.95;85.69
13407;BME280;6774;48.208;10.766;2023-07-28T03:09:22;94962.84;;;14.97;85.34
13407;BME280;6774;48.208;10.766;2023-07-28T03:11:58;94968.72;;;14.99;85.13
13407;BME280;6774;48.208;10.766;2023-07-28T03:14:26;94970.00;;;14.85;86.33
13407;BME280;6774;48.208;10.766;2023-07-28T03:16:55;94965.56;;;14.79;86.70
13407;BME280;6774;48.208;10.766;2023-07-28T03:19:23;94974.09;;;14.69;87.08
13407;BME280;6774;48.208;10.766;2023-07-28T03:21:52;94972.63;;;14.73;87.39
13407;BME280;6774;48.208;10.766;2023-07-28T03:24:20;94980.34;;;14.75;87.05
13407;BME280;6774;48.208;10.766;2023-07-28T03:26:49;94971.81;;;14.73;87.13
13407;BME280;6774;48.208;10.766;2023-07-28T03:29:16;94978.75;;;14.74;86.81
13407;BME280;6774;48.208;10.766;2023-07-28T03:31:45;94976.41;;;14.66;87.17
13407;BME280;6774;48.208;10.766;2023-07-28T03:34:13;94973.47;;;14.56;87.45
13407;BME280;6774;48.208;10.766;2023-07-28T03:36:42;94979.81;;;14.55;87.70
13407;BME280;6774;48.208;10.766;2023-07-28T03:39:10;94988.81;;;14.35;88.04
13407;BME280;6774;48.208;10.766;2023-07-28T03:41:38;94992.38;;;14.29;88.86
13407;BME280;6774;48.208;10.766;2023-07-28T03:44:07;94981.75;;;14.47;87.61
13407;BME280;6774;48.208;10.766;2023-07-28T03:46:34;94989.19;;;14.57;87.67
13407;BME280;6774;48.208;10.766;2023-07-28T03:49:03;94987.91;;;14.60;88.18
13407;BME280;6774;48.208;10.766;2023-07-28T03:51:31;94992.72;;;14.51;88.95
13407;BME280;6774;48.208;10.766;2023-07-28T03:53:59;94991.59;;;14.59;89.09
13407;BME280;6774;48.208;10.766;2023-07-28T03:56:26;94987.19;;;14.52;90.77
13407;BME280;6774;48.208;10.766;2023-07-28T03:58:55;94978.81;;;14.67;90.23
13407;BME280;6774;48.208;10.766;2023-07-28T04:01:24;94985.94;;;14.85;89.38
13407;BME280;6774;48.208;10.766;2023-07-28T04:03:52;94982.16;;;15.04;89.29
13407;BME280;6774;48.208;10.766;2023-07-28T04:06:39;94980.38;;;15.28;88.33
13407;BME280;6774;48.208;10.766;2023-07-28T04:09:07;94973.53;;;15.44;87.75
13407;BME280;6774;48.208;10.766;2023-07-28T04:11:35;94990.44;;;15.61;87.13
13407;BME280;6774;48.208;10.766;2023-07-28T04:14:03;94991.16;;;15.69;86.97
13407;BME280;6774;48.208;10.766;2023-07-28T04:16:33;94994.72;;;15.62;86.89
13407;BME280;6774;48.208;10.766;2023-07-28T04:19:01;94996.88;;;15.54;87.06
13407;BME280;6774;48.208;10.766;2023-07-28T04:21:29;94992.03;;;15.39;87.95
13407;BME280;6774;48.208;10.766;2023-07-28T04:23:57;94997.50;;;15.56;87.46
13407;BME280;6774;48.208;10.766;2023-07-28T04:26:26;94986.19;;;15.60;87.17
13407;BME280;6774;48.208;10.766;2023-07-28T04:28:58;94991.09;;;15.45;87.89
13407;BME280;6774;48.208;10.766;2023-07-28T04:31:27;94993.19;;;15.43;88.52
13407;BME280;6774;48.208;10.766;2023-07-28T04:34:06;95011.31;;;15.34;90.26
13407;BME280;6774;48.208;10.766;2023-07-28T04:36:59;95012.75;;;15.49;90.34
13407;BME280;6774;48.208;10.766;2023-07-28T04:39:37;95004.34;;;15.63;90.00
13407;BME280;6774;48.208;10.766;2023-07-28T04:42:06;94998.09;;;15.70;90.54
13407;BME280;6774;48.208;10.766;2023-07-28T04:44:38;94997.19;;;15.76;91.01
13407;BME280;6774;48.208;10.766;2023-07-28T04:47:06;95007.56;;;15.77;91.58
13407;BME280;6774;48.208;10.766;2023-07-28T04:49:35;95001.44;;;15.88;91.27
13407;BME280;6774;48.208;10.766;2023-07-28T04:52:07;95000.97;;;16.03;90.62
13407;BME280;6774;48.208;10.766;2023-07-28T04:54:35;95001.97;;;16.26;90.46
13407;BME280;6774;48.208;10.766;2023-07-28T04:57:03;95004.00;;;16.47;89.12
13407;BME280;6774;48.208;10.766;2023-07-28T04:59:34;95016.34;;;16.65;88.19
13407;BME280;6774;48.208;10.766;2023-07-28T05:02:01;95017.06;;;16.89;87.19
13407;BME280;6774;48.208;10.766;2023-07-28T05:04:29;95023.91;;;17.13;86.25
13407;BME280;6774;48.208;10.766;2023-07-28T05:06:58;95014.06;;;17.30;85.79
13407;BME280;6774;48.208;10.766;2023-07-28T05:09:26;95014.31;;;17.46;85.67
13407;BME280;6774;48.208;10.766;2023-07-28T05:11:55;95019.25;;;17.54;85.93
13407;BME280;6774;48.208;10.766;2023-07-28T05:14:24;95014.88;;;17.64;85.90
13407;BME280;6774;48.208;10.766;2023-07-28T05:16:52;95013.59;;;17.67;86.34
13407;BME280;6774;48.208;10.766;2023-07-28T05:19:50;95031.63;;;17.60;87.41
13407;BME280;6774;48.208;10.766;2023-07-28T05:22:51;95024.75;;;17.64;88.09
13407;BME280;6774;48.208;10.766;2023-07-28T05:25:21;95035.13;;;17.77;87.95
13407;BME280;6774;48.208;10.766;2023-07-28T05:27:49;95034.78;;;17.90;87.62
13407;BME280;6774;48.208;10.766;2023-07-28T05:30:17;95024.22;;;18.17;86.99
13407;BME280;6774;48.208;10.766;2023-07-28T05:32:47;95036.84;;;18.22;85.59
13407;BME280;6774;48.208;10.766;2023-07-28T05:35:20;95042.16;;;18.39;84.70
13407;BME280;6774;48.208;10.766;2023-07-28T05:37:48;95038.47;;;18.45;84.60
13407;BME280;6774;48.208;10.766;2023-07-28T05:40:17;95039.34;;;18.51;83.87
13407;BME280;6774;48.208;10.766;2023-07-28T05:42:45;95044.72;;;18.72;84.04
13407;BME280;6774;48.208;10.766;2023-07-28T05:45:13;95049.03;;;19.00;82.70
13407;BME280;6774;48.208;10.766;2023-07-28T05:47:42;95038.34;;;19.00;81.04
13407;BME280;6774;48.208;10.766;2023-07-28T05:50:09;95038.00;;;19.19;80.54
13407;BME280;6774;48.208;10.766;2023-07-28T05:52:37;95045.88;;;19.57;80.55
13407;BME280;6774;48.208;10.766;2023-07-28T05:55:06;95044.78;;;19.85;80.02
13407;BME280;6774;48.208;10.766;2023-07-28T05:57:35;95032.25;;;19.96;79.13
13407;BME280;6774;48.208;10.766;2023-07-28T06:00:07;95031.41;;;19.91;77.26
13407;BME280;6774;48.208;10.766;2023-07-28T06:02:42;95047.59;;;19.74;78.74
13407;BME280;6774;48.208;10.766;2023-07-28T06:05:24;95053.63;;;19.91;78.90
13407;BME280;6774;48.208;10.766;2023-07-28T06:07:52;95046.13;;;19.93;78.97
13407;BME280;6774;48.208;10.766;2023-07-28T06:10:20;95053.69;;;20.01;78.87
13407;BME280;6774;48.208;10.766;2023-07-28T06:12:49;95050.78;;;20.03;78.93
13407;BME280;6774;48.208;10.766;2023-07-28T06:15:17;95049.47;;;20.05;79.01
13407;BME280;6774;48.208;10.766;2023-07-28T06:17:44;95054.28;;;20.03;79.28
13407;BME280;6774;48.208;10.766;2023-07-28T06:20:13;95053.03;;;19.84;78.67
13407;BME280;6774;48.208;10.766;2023-07-28T06:22:41;95047.19;;;19.87;79.05
13407;BME280;6774;48.208;10.766;2023-07-28T06:25:09;95058.97;;;19.91;79.19
13407;BME280;6774;48.208;10.766;2023-07-28T06:27:37;95062.72;;;19.90;80.13
13407;BME280;6774;48.208;10.766;2023-07-28T06:30:08;95065.06;;;19.81;80.69
13407;BME280;6774;48.208;10.766;2023-07-28T06:32:36;95055.75;;;19.89;80.17
13407;BME280;6774;48.208;10.766;2023-07-28T06:35:05;95055.31;;;20.02;79.90
13407;BME280;6774;48.208;10.766;2023-07-28T06:37:34;95050.09;;;20.23;79.87
13407;BME280;6774;48.208;10.766;2023-07-28T06:40:03;95046.94;;;20.31;78.05
13407;BME280;6774;48.208;10.766;2023-07-28T06:42:33;95050.66;;;20.25;78.04
13407;BME280;6774;48.208;10.766;2023-07-28T06:45:02;95057.50;;;20.48;77.86
13407;BME280;6774;48.208;10.766;2023-07-28T06:47:31;95064.22;;;20.55;78.35
13407;BME280;6774;48.208;10.766;2023-07-28T06:49:59;95058.22;;;20.38;78.92
13407;BME280;6774;48.208;10.766;2023-07-28T06:52:27;95055.16;;;20.66;77.74
13407;BME280;6774;48.208;10.766;2023-07-28T06:54:55;95062.63;;;20.54;78.58
13407;BME280;6774;48.208;10.766;2023-07-28T06:57:22;95064.22;;;20.55;76.58
13407;BME280;6774;48.208;10.766;2023-07-28T06:59:50;95067.94;;;20.44;76.54
13407;BME280;6774;48.208;10.766;2023-07-28T07:02:18;95073.38;;;20.64;77.19
13407;BME280;6774;48.208;10.766;2023-07-28T07:04:47;95065.41;;;20.80;75.89
13407;BME280;6774;48.208;10.766;2023-07-28T07:07:15;95072.66;;;20.84;76.58
13407;BME280;6774;48.208;10.766;2023-07-28T07:09:43;95062.72;;;20.74;74.80
13407;BME280;6774;48.208;10.766;2023-07-28T07:12:11;95070.56;;;20.91;76.64
13407;BME280;6774;48.208;10.766;2023-07-28T07:14:40;95068.16;;;21.00;75.92
13407;BME280;6774;48.208;10.766;2023-07-28T07:17:08;95067.66;;;21.03;75.27
13407;BME280;6774;48.208;10.766;2023-07-28T07:19:36;95069.78;;;20.96;74.86
13407;BME280;6774;48.208;10.766;2023-07-28T07:22:05;95067.94;;;21.07;75.16
13407;BME280;6774;48.208;10.766;2023-07-28T07:24:33;95074.63;;;20.99;75.38
13407;BME280;6774;48.208;10.766;2023-07-28T07:27:01;95073.00;;;20.98;74.29
13407;BME280;6774;48.208;10.766;2023-07-28T07:29:29;95080.03;;;21.19;75.22
13407;BME280;6774;48.208;10.766;2023-07-28T07:31:56;95078.44;;;21.23;75.28
13407;BME280;6774;48.208;10.766;2023-07-28T07:34:24;95080.56;;;21.16;75.86
13407;BME280;6774;48.208;10.766;2023-07-28T07:36:52;95076.09;;;21.37;75.77
13407;BME280;6774;48.208;10.766;2023-07-28T07:39:21;95086.00;;;21.37;75.02
13407;BME280;6774;48.208;10.766;2023-07-28T07:41:49;95089.72;;;21.25;75.90
13407;BME280;6774;48.208;10.766;2023-07-28T07:44:17;95074.50;;;21.67;76.70
13407;BME280;6774;48.208;10.766;2023-07-28T07:46:45;95076.41;;;21.92;75.31
13407;BME280;6774;48.208;10.766;2023-07-28T07:49:12;95076.41;;;22.02;73.55
13407;BME280;6774;48.208;10.766;2023-07-28T07:51:40;95078.78;;;22.44;72.77
13407;BME280;6774;48.208;10.766;2023-07-28T07:54:08;95081.63;;;22.98;73.89
13407;BME280;6774;48.208;10.766;2023-07-28T07:56:37;95075.72;;;22.96;73.17
13407;BME280;6774;48.208;10.766;2023-07-28T07:59:05;95085.81;;;23.20;70.51
13407;BME280;6774;48.208;10.766;2023-07-28T08:01:33;95075.16;;;22.99;72.05
13407;BME280;6774;48.208;10.766;2023-07-28T08:04:01;95077.78;;;23.10;70.99
13407;BME280;6774;48.208;10.766;2023-07-28T08:06:29;95075.56;;;23.27;71.17
13407;BME280;6774;48.208;10.766;2023-07-28T08:08:57;95075.53;;;23.32;69.28
13407;BME280;6774;48.208;10.766;2023-07-28T08:11:25;95073.44;;;23.19;69.99
13407;BME280;6774;48.208;10.766;2023-07-28T08:13:54;95089.38;;;23.54;71.67
13407;BME280;6774;48.208;10.766;2023-07-28T08:16:22;95085.63;;;23.61;69.03
13407;BME280;6774;48.208;10.766;2023-07-28T08:18:50;95080.81;;;23.47;69.74
13407;BME280;6774;48.208;10.766;2023-07-28T08:21:18;95084.72;;;23.26;70.91
13407;BME280;6774;48.208;10.766;2023-07-28T08:23:46;95092.06;;;23.10;71.31
13407;BME280;6774;48.208;10.766;2023-07-28T08:26:14;95091.47;;;23.23;73.76
13407;BME280;6774;48.208;10.766;2023-07-28T08:28:41;95093.00;;;22.65;74.33
13407;BME280;6774;48.208;10.766;2023-07-28T08:31:10;95092.94;;;22.90;75.01
13407;BME280;6774;48.208;10.766;2023-07-28T08:33:38;95091.97;;;22.51;73.70
13407;BME280;6774;48.208;10.766;2023-07-28T08:36:06;95094.97;;;22.24;74.05
13407;BME280;6774;48.208;10.766;2023-07-28T08:38:34;95107.88;;;22.32;74.85
13407;BME280;6774;48.208;10.766;2023-07-28T08:41:02;95101.41;;;22.28;74.82
13407;BME280;6774;48.208;10.766;2023-07-28T08:43:31;95098.72;;;22.33;75.42
13407;BME280;6774;48.208;10.766;2023-07-28T08:45:59;95101.09;;;22.55;74.30
13407;BME280;6774;48.208;10.766;2023-07-28T08:48:28;95095.19;;;22.48;74.40
13407;BME280;6774;48.208;10.766;2023-07-28T08:50:56;95100.00;;;22.56;74.30
13407;BME280;6774;48.208;10.766;2023-07-28T08:53:24;95096.25;;;22.62;74.74
13407;BME280;6774;48.208;10.766;2023-07-28T08:55:51;95096.50;;;22.60;75.25
13407;BME280;6774;48.208;10.766;2023-07-28T08:58:20;95085.88;;;23.10;74.65
13407;BME280;6774;48.208;10.766;2023-07-28T09:00:49;95087.25;;;23.51;72.21
13407;BME280;6774;48.208;10.766;2023-07-28T09:03:18;95088.09;;;23.91;70.57
13407;BME280;6774;48.208;10.766;2023-07-28T09:05:47;95081.41;;;24.18;71.13
13407;BME280;6774;48.208;10.766;2023-07-28T09:08:15;95089.25;;;23.80;69.03
13407;BME280;6774;48.208;10.766;2023-07-28T09:10:45;95099.97;;;23.85;68.07
13407;BME280;6774;48.208;10.766;2023-07-28T09:13:13;95094.94;;;23.78;69.65
13407;BME280;6774;48.208;10.766;2023-07-28T09:15:43;95094.88;;;24.18;70.10
13407;BME280;6774;48.208;10.766;2023-07-28T09:18:13;95095.59;;;23.94;69.40
13407;BME280;6774;48.208;10.766;2023-07-28T09:20:42;95089.19;;;23.90;68.31
13407;BME280;6774;48.208;10.766;2023-07-28T09:23:13;95100.44;;;23.97;69.31
13407;BME280;6774;48.208;10.766;2023-07-28T09:25:41;95103.66;;;23.99;68.83
13407;BME280;6774;48.208;10.766;2023-07-28T09:28:09;95088.31;;;24.58;69.87
13407;BME280;6774;48.208;10.766;2023-07-28T09:30:46;95091.50;;;24.36;66.59
13407;BME280;6774;48.208;10.766;2023-07-28T09:33:28;95091.69;;;24.10;67.96
13407;BME280;6774;48.208;10.766;2023-07-28T09:35:56;95099.88;;;24.00;69.07
13407;BME280;6774;48.208;10.766;2023-07-28T09:38:27;95095.78;;;24.08;69.99
13407;BME280;6774;48.208;10.766;2023-07-28T09:40:57;95110.38;;;23.58;68.95
13407;BME280;6774;48.208;10.766;2023-07-28T09:43:26;95099.66;;;23.52;69.21
13407;BME280;6774;48.208;10.766;2023-07-28T09:45:55;95105.69;;;23.29;67.97
13407;BME280;6774;48.208;10.766;2023-07-28T09:48:24;95095.47;;;23.26;70.13
13407;BME280;6774;48.208;10.766;2023-07-28T09:50:52;95097.47;;;23.54;70.28
13407;BME280;6774;48.208;10.766;2023-07-28T09:53:20;95103.25;;;23.82;70.51
13407;BME280;6774;48.208;10.766;2023-07-28T09:55:51;95099.59;;;23.63;70.05
13407;BME280;6774;48.208;10.766;2023-07-28T09:58:20;95094.91;;;23.34;68.84
13407;BME280;6774;48.208;10.766;2023-07-28T10:00:48;95101.97;;;23.20;69.62
13407;BME280;6774;48.208;10.766;2023-07-28T10:03:17;95099.13;;;22.96;70.00
13407;BME280;6774;48.208;10.766;2023-07-28T10:05:45;95099.38;;;22.94;70.18
13407;BME280;6774;48.208;10.766;2023-07-28T10:08:14;95116.09;;;22.76;70.50
13407;BME280;6774;48.208;10.766;2023-07-28T10:10:44;95103.16;;;22.93;70.32
13407;BME280;6774;48.208;10.766;2023-07-28T10:13:20;95103.50;;;23.41;70.29
13407;BME280;6774;48.208;10.766;2023-07-28T10:15:50;95111.34;;;23.77;70.30
13407;BME280;6774;48.208;10.766;2023-07-28T10:18:19;95111.97;;;23.59;69.76
13407;BME280;6774;48.208;10.766;2023-07-28T10:20:47;95111.91;;;23.74;69.64
13407;BME280;6774;48.208;10.766;2023-07-28T10:23:17;95102.66;;;23.90;69.42
13407;BME280;6774;48.208;10.766;2023-07-28T10:25:56;95109.41;;;23.38;69.96
13407;BME280;6774;48.208;10.766;2023-07-28T10:28:30;95105.09;;;23.42;70.15
13407;BME280;6774;48.208;10.766;2023-07-28T10:30:59;95120.91;;;23.49;68.93
13407;BME280;6774;48.208;10.766;2023-07-28T10:33:32;95115.00;;;22.97;67.78
13407;BME280;6774;48.208;10.766;2023-07-28T10:36:13;95125.19;;;23.01;68.74
13407;BME280;6774;48.208;10.766;2023-07-28T10:38:41;95107.72;;;23.52;67.62
13407;BME280;6774;48.208;10.766;2023-07-28T10:41:12;95117.25;;;23.84;67.31
13407;BME280;6774;48.208;10.766;2023-07-28T10:43:42;95109.78;;;24.44;67.83
13407;BME280;6774;48.208;10.766;2023-07-28T10:46:11;95105.88;;;24.55;65.29
13407;BME280;6774;48.208;10.766;2023-07-28T10:48:44;95122.16;;;24.11;65.49
13407;BME280;6774;48.208;10.766;2023-07-28T10:51:12;95119.59;;;24.59;64.60
13407;BME280;6774;48.208;10.766;2023-07-28T10:53:49;95117.84;;;25.21;65.25
13407;BME280;6774;48.208;10.766;2023-07-28T10:56:17;95111.91;;;25.43;62.86
13407;BME280;6774;48.208;10.766;2023-07-28T10:58:55;95115.63;;;25.47;63.87
13407;BME280;6774;48.208;10.766;2023-07-28T11:01:30;95112.13;;;25.65;62.47
13407;BME280;6774;48.208;10.766;2023-07-28T11:04:06;95124.28;;;25.01;63.20
13407;BME280;6774;48.208;10.766;2023-07-28T11:06:33;95123.31;;;25.59;65.18
13407;BME280;6774;48.208;10.766;2023-07-28T11:09:02;95113.56;;;25.39;63.46
13407;BME280;6774;48.208;10.766;2023-07-28T11:11:33;95104.97;;;26.12;62.75
13407;BME280;6774;48.208;10.766;2023-07-28T11:14:04;95095.59;;;25.72;61.17
13407;BME280;6774;48.208;10.766;2023-07-28T11:16:33;95108.34;;;25.66;61.84
13407;BME280;6774;48.208;10.766;2023-07-28T11:19:02;95104.00;;;25.70;62.07
13407;BME280;6774;48.208;10.766;2023-07-28T11:21:30;95111.44;;;25.78;62.81
13407;BME280;6774;48.208;10.766;2023-07-28T11:23:58;95112.09;;;25.89;61.21
13407;BME280;6774;48.208;10.766;2023-07-28T11:26:26;95109.38;;;26.08;61.86
13407;BME280;6774;48.208;10.766;2023-07-28T11:28:55;95097.53;;;26.04;62.43
13407;BME280;6774;48.208;10.766;2023-07-28T11:31:25;95104.94;;;25.98;61.38
13407;BME280;6774;48.208;10.766;2023-07-28T11:33:53;95112.59;;;26.24;62.24
13407;BME280;6774;48.208;10.766;2023-07-28T11:36:22;95111.81;;;26.23;61.03
13407;BME280;6774;48.208;10.766;2023-07-28T11:38:51;95114.44;;;25.77;62.75
13407;BME280;6774;48.208;10.766;2023-07-28T11:41:19;95100.41;;;26.26;63.06
13407;BME280;6774;48.208;10.766;2023-07-28T11:43:47;95088.84;;;26.40;61.46
13407;BME280;6774;48.208;10.766;2023-07-28T11:46:33;95094.41;;;26.62;62.44
13407;BME280;6774;48.208;10.766;2023-07-28T11:49:09;95090.41;;;25.75;60.99
13407;BME280;6774;48.208;10.766;2023-07-28T11:54:11;95100.25;;;25.85;60.98
13407;BME280;6774;48.208;10.766;2023-07-28T11:56:40;95101.13;;;25.99;62.35
13407;BME280;6774;48.208;10.766;2023-07-28T11:59:09;95095.63;;;25.67;60.40
13407;BME280;6774;48.208;10.766;2023-07-28T12:01:52;95104.25;;;25.88;61.69
13407;BME280;6774;48.208;10.766;2023-07-28T12:04:25;95089.06;;;25.92;62.00
13407;BME280;6774;48.208;10.766;2023-07-28T12:07:17;95099.78;;;25.97;61.43
13407;BME280;6774;48.208;10.766;2023-07-28T12:09:48;95094.75;;;26.09;61.82
13407;BME280;6774;48.208;10.766;2023-07-28T12:12:30;95099.25;;;25.81;61.87
13407;BME280;6774;48.208;10.766;2023-07-28T12:15:22;95094.38;;;25.40;62.64
13407;BME280;6774;48.208;10.766;2023-07-28T12:18:11;95094.63;;;25.44;61.31
13407;BME280;6774;48.208;10.766;2023-07-28T12:20:44;95105.09;;;25.27;62.26
13407;BME280;6774;48.208;10.766;2023-07-28T12:23:15;95100.50;;;25.27;63.04
13407;BME280;6774;48.208;10.766;2023-07-28T12:25:46;95104.31;;;25.02;62.63
13407;BME280;6774;48.208;10.766;2023-07-28T12:28:14;95106.88;;;25.12;62.60
13407;BME280;6774;48.208;10.766;2023-07-28T12:30:46;95105.47;;;25.39;64.97
13407;BME280;6774;48.208;10.766;2023-07-28T12:33:17;95112.13;;;25.65;64.54
13407;BME280;6774;48.208;10.766;2023-07-28T12:35:48;95109.47;;;25.22;62.20
13407;BME280;6774;48.208;10.766;2023-07-28T12:38:17;95098.53;;;25.33;63.49
13407;BME280;6774;48.208;10.766;2023-07-28T12:40:48;95105.03;;;25.32;61.52
13407;BME280;6774;48.208;10.766;2023-07-28T12:43:18;95105.44;;;24.96;62.51
13407;BME280;6774;48.208;10.766;2023-07-28T12:45:49;95105.00;;;24.89;62.54
13407;BME280;6774;48.208;10.766;2023-07-28T12:48:21;95111.75;;;24.62;62.99
13407;BME280;6774;48.208;10.766;2023-07-28T12:50:49;95112.66;;;24.53;62.56
13407;BME280;6774;48.208;10.766;2023-07-28T12:53:29;95108.41;;;24.47;64.08
13407;BME280;6774;48.208;10.766;2023-07-28T12:55:57;95104.41;;;24.39;63.57
13407;BME280;6774;48.208;10.766;2023-07-28T12:58:26;95112.97;;;24.46;63.27
13407;BME280;6774;48.208;10.766;2023-07-28T13:00:58;95106.91;;;24.59;65.23
13407;BME280;6774;48.208;10.766;2023-07-28T13:03:30;95116.28;;;24.38;64.17
13407;BME280;6774;48.208;10.766;2023-07-28T13:05:58;95136.34;;;24.56;63.81
13407;BME280;6774;48.208;10.766;2023-07-28T13:08:26;95123.44;;;24.19;64.79
13407;BME280;6774;48.208;10.766;2023-07-28T13:10:56;95137.28;;;24.07;65.28
13407;BME280;6774;48.208;10.766;2023-07-28T13:13:27;95139.53;;;24.29;65.95
13407;BME280;6774;48.208;10.766;2023-07-28T13:15:56;95140.28;;;24.05;66.27